sensor_id;sensor_type;location;lat;lon;timestamp;pressure;altitude;pressure_sealevel;temperature
20103;BMP180;10210;52.284;9.892;2022-07-05T00:02:12;101031.00;;;25.80
20103;BMP180;10210;52.284;9.892;2022-07-05T00:04:38;101029.00;;;25.80
20103;BMP180;10210;52.284;9.892;2022-07-05T00:07:03;101030.00;;;25.80
20103;BMP180;10210;52.284;9.892;2022-07-05T00:09:56;101027.00;;;25.80
20103;BMP180;10210;52.284;9.892;2022-07-05T00:12:29;101022.00;;;25.70
20103;BMP180;10210;52.284;9.892;2022-07-05T00:14:58;101024.00;;;25.70
20103;BMP180;10210;52.284;9.892;2022-07-05T00:17:25;101019.00;;;25.70
20103;BMP180;10210;52.284;9.892;2022-07-05T00:19:50;101018.00;;;25.70
20103;BMP180;10210;52.284;9.892;2022-07-05T00:22:16;101008.00;;;25.60
20103;BMP180;10210;52.284;9.892;2022-07-05T00:24:43;101013.00;;;25.50
20103;BMP180;10210;52.284;9.892;2022-07-05T00:27:09;101006.00;;;25.50
20103;BMP180;10210;52.284;9.892;2022-07-05T00:29:34;101010.00;;;25.40
20103;BMP180;10210;52.284;9.892;2022-07-05T00:32:00;101022.00;;;25.30
20103;BMP180;10210;52.284;9.892;2022-07-05T00:34:26;101015.00;;;25.20
20103;BMP180;10210;52.284;9.892;2022-07-05T00:36:51;101019.00;;;25.20
20103;BMP180;10210;52.284;9.892;2022-07-05T00:39:17;101023.00;;;25.10
20103;BMP180;10210;52.284;9.892;2022-07-05T00:41:43;101031.00;;;25.10
20103;BMP180;10210;52.284;9.892;2022-07-05T00:44:11;101026.00;;;25.00
20103;BMP180;10210;52.284;9.892;2022-07-05T00:46:39;101025.00;;;25.00
20103;BMP180;10210;52.284;9.892;2022-07-05T00:49:06;101013.00;;;25.00
20103;BMP180;10210;52.284;9.892;2022-07-05T00:51:35;101026.00;;;25.00
20103;BMP180;10210;52.284;9.892;2022-07-05T00:54:02;101036.00;;;25.00
20103;BMP180;10210;52.284;9.892;2022-07-05T00:56:30;101032.00;;;24.90
20103;BMP180;10210;52.284;9.892;2022-07-05T00:58:56;101035.00;;;24.90
20103;BMP180;10210;52.284;9.892;2022-07-05T01:01:22;101034.00;;;24.80
20103;BMP180;10210;52.284;9.892;2022-07-05T01:03:47;101025.00;;;24.80
20103;BMP180;10210;52.284;9.892;2022-07-05T01:06:14;101028.00;;;24.80
20103;BMP180;10210;52.284;9.892;2022-07-05T01:08:42;101031.00;;;24.70
20103;BMP180;10210;52.284;9.892;2022-07-05T01:11:10;101027.00;;;24.60
20103;BMP180;10210;52.284;9.892;2022-07-05T01:13:37;101031.00;;;24.60
20103;BMP180;10210;52.284;9.892;2022-07-05T01:16:04;101034.00;;;24.50
20103;BMP180;10210;52.284;9.892;2022-07-05T01:18:31;101027.00;;;24.50
20103;BMP180;10210;52.284;9.892;2022-07-05T01:20:59;101027.00;;;24.40
20103;BMP180;10210;52.284;9.892;2022-07-05T01:23:32;101019.00;;;24.40
20103;BMP180;10210;52.284;9.892;2022-07-05T01:26:02;101022.00;;;24.30
20103;BMP180;10210;52.284;9.892;2022-07-05T01:28:28;101022.00;;;24.30
20103;BMP180;10210;52.284;9.892;2022-07-05T01:30:54;101016.00;;;24.20
20103;BMP180;10210;52.284;9.892;2022-07-05T01:33:28;101024.00;;;24.20
20103;BMP180;10210;52.284;9.892;2022-07-05T01:35:55;101017.00;;;24.10
20103;BMP180;10210;52.284;9.892;2022-07-05T01:38:20;101019.00;;;24.00
20103;BMP180;10210;52.284;9.892;2022-07-05T01:40:46;101017.00;;;24.00
20103;BMP180;10210;52.284;9.892;2022-07-05T01:43:15;101014.00;;;23.90
20103;BMP180;10210;52.284;9.892;2022-07-05T01:45:43;101014.00;;;23.90
20103;BMP180;10210;52.284;9.892;2022-07-05T01:48:13;101011.00;;;23.80
20103;BMP180;10210;52.284;9.892;2022-07-05T01:50:52;101012.00;;;23.80
20103;BMP180;10210;52.284;9.892;2022-07-05T01:53:24;101027.00;;;23.80
20103;BMP180;10210;52.284;9.892;2022-07-05T01:55:56;101012.00;;;23.80
20103;BMP180;10210;52.284;9.892;2022-07-05T01:58:23;101012.00;;;23.80
20103;BMP180;10210;52.284;9.892;2022-07-05T02:00:52;101024.00;;;23.70
20103;BMP180;10210;52.284;9.892;2022-07-05T02:03:19;101025.00;;;23.70
20103;BMP180;10210;52.284;9.892;2022-07-05T02:05:46;101017.00;;;23.70
20103;BMP180;10210;52.284;9.892;2022-07-05T02:08:13;101019.00;;;23.70
20103;BMP180;10210;52.284;9.892;2022-07-05T02:10:40;101017.00;;;23.60
20103;BMP180;10210;52.284;9.892;2022-07-05T02:13:07;101018.00;;;23.60
20103;BMP180;10210;52.284;9.892;2022-07-05T02:15:35;101024.00;;;23.60
20103;BMP180;10210;52.284;9.892;2022-07-05T02:18:02;101016.00;;;23.60
20103;BMP180;10210;52.284;9.892;2022-07-05T02:20:29;101023.00;;;23.50
20103;BMP180;10210;52.284;9.892;2022-07-05T02:22:56;101022.00;;;23.50
20103;BMP180;10210;52.284;9.892;2022-07-05T02:25:22;101023.00;;;23.50
20103;BMP180;10210;52.284;9.892;2022-07-05T02:27:48;101028.00;;;23.50
20103;BMP180;10210;52.284;9.892;2022-07-05T02:30:14;101025.00;;;23.50
20103;BMP180;10210;52.284;9.892;2022-07-05T02:32:41;101022.00;;;23.40
20103;BMP180;10210;52.284;9.892;2022-07-05T02:35:08;101016.00;;;23.40
20103;BMP180;10210;52.284;9.892;2022-07-05T02:37:35;101011.00;;;23.40
20103;BMP180;10210;52.284;9.892;2022-07-05T02:40:02;101016.00;;;23.40
20103;BMP180;10210;52.284;9.892;2022-07-05T02:42:27;101010.00;;;23.40
20103;BMP180;10210;52.284;9.892;2022-07-05T02:44:53;101014.00;;;23.40
20103;BMP180;10210;52.284;9.892;2022-07-05T02:47:19;101014.00;;;23.30
20103;BMP180;10210;52.284;9.892;2022-07-05T02:49:44;101017.00;;;23.30
20103;BMP180;10210;52.284;9.892;2022-07-05T02:52:10;101014.00;;;23.30
20103;BMP180;10210;52.284;9.892;2022-07-05T02:54:36;101018.00;;;23.20
20103;BMP180;10210;52.284;9.892;2022-07-05T02:57:02;101020.00;;;23.20
20103;BMP180;10210;52.284;9.892;2022-07-05T02:59:27;101027.00;;;23.20
20103;BMP180;10210;52.284;9.892;2022-07-05T03:01:53;101023.00;;;23.20
20103;BMP180;10210;52.284;9.892;2022-07-05T03:04:19;101035.00;;;23.10
20103;BMP180;10210;52.284;9.892;2022-07-05T03:06:44;101036.00;;;23.10
20103;BMP180;10210;52.284;9.892;2022-07-05T03:09:10;101034.00;;;23.10
20103;BMP180;10210;52.284;9.892;2022-07-05T03:11:36;101036.00;;;23.10
20103;BMP180;10210;52.284;9.892;2022-07-05T03:14:02;101031.00;;;23.10
20103;BMP180;10210;52.284;9.892;2022-07-05T03:16:28;101035.00;;;23.00
20103;BMP180;10210;52.284;9.892;2022-07-05T03:18:54;101034.00;;;23.00
20103;BMP180;10210;52.284;9.892;2022-07-05T03:21:20;101037.00;;;23.00
20103;BMP180;10210;52.284;9.892;2022-07-05T03:23:46;101043.00;;;23.00
20103;BMP180;10210;52.284;9.892;2022-07-05T03:26:12;101036.00;;;23.00
20103;BMP180;10210;52.284;9.892;2022-07-05T03:28:37;101042.00;;;23.10
20103;BMP180;10210;52.284;9.892;2022-07-05T03:31:03;101042.00;;;23.00
20103;BMP180;10210;52.284;9.892;2022-07-05T03:33:29;101042.00;;;23.00
20103;BMP180;10210;52.284;9.892;2022-07-05T03:35:54;101040.00;;;23.00
20103;BMP180;10210;52.284;9.892;2022-07-05T03:38:20;101046.00;;;23.00
20103;BMP180;10210;52.284;9.892;2022-07-05T03:40:46;101047.00;;;23.00
20103;BMP180;10210;52.284;9.892;2022-07-05T03:43:11;101051.00;;;23.00
20103;BMP180;10210;52.284;9.892;2022-07-05T03:45:37;101049.00;;;23.00
20103;BMP180;10210;52.284;9.892;2022-07-05T03:48:03;101044.00;;;23.00
20103;BMP180;10210;52.284;9.892;2022-07-05T03:50:29;101048.00;;;23.00
20103;BMP180;10210;52.284;9.892;2022-07-05T03:52:55;101047.00;;;22.90
20103;BMP180;10210;52.284;9.892;2022-07-05T03:55:20;101053.00;;;22.90
20103;BMP180;10210;52.284;9.892;2022-07-05T03:57:47;101057.00;;;22.90
20103;BMP180;10210;52.284;9.892;2022-07-05T04:00:13;101060.00;;;22.90
20103;BMP180;10210;52.284;9.892;2022-07-05T04:02:39;101059.00;;;22.90
20103;BMP180;10210;52.284;9.892;2022-07-05T04:05:06;101054.00;;;23.00
20103;BMP180;10210;52.284;9.892;2022-07-05T04:07:32;101057.00;;;23.00
20103;BMP180;10210;52.284;9.892;2022-07-05T04:09:59;101061.00;;;23.00
20103;BMP180;10210;52.284;9.892;2022-07-05T04:12:26;101064.00;;;23.00
20103;BMP180;10210;52.284;9.892;2022-07-05T04:14:51;101056.00;;;23.00
20103;BMP180;10210;52.284;9.892;2022-07-05T04:17:17;101051.00;;;23.10
20103;BMP180;10210;52.284;9.892;2022-07-05T04:19:43;101057.00;;;23.10
20103;BMP180;10210;52.284;9.892;2022-07-05T04:22:09;101068.00;;;23.10
20103;BMP180;10210;52.284;9.892;2022-07-05T04:24:36;101063.00;;;23.10
20103;BMP180;10210;52.284;9.892;2022-07-05T04:27:21;101079.00;;;23.20
20103;BMP180;10210;52.284;9.892;2022-07-05T04:29:47;101072.00;;;23.20
20103;BMP180;10210;52.284;9.892;2022-07-05T04:32:13;101069.00;;;23.20
20103;BMP180;10210;52.284;9.892;2022-07-05T04:34:38;101067.00;;;23.20
20103;BMP180;10210;52.284;9.892;2022-07-05T04:37:04;101067.00;;;23.20
20103;BMP180;10210;52.284;9.892;2022-07-05T04:39:30;101075.00;;;23.20
20103;BMP180;10210;52.284;9.892;2022-07-05T04:41:55;101077.00;;;23.20
20103;BMP180;10210;52.284;9.892;2022-07-05T04:44:21;101073.00;;;23.20
20103;BMP180;10210;52.284;9.892;2022-07-05T04:46:46;101074.00;;;23.20
20103;BMP180;10210;52.284;9.892;2022-07-05T04:49:12;101073.00;;;23.20
20103;BMP180;10210;52.284;9.892;2022-07-05T04:51:38;101084.00;;;23.20
20103;BMP180;10210;52.284;9.892;2022-07-05T04:54:03;101076.00;;;23.20
20103;BMP180;10210;52.284;9.892;2022-07-05T04:56:29;101080.00;;;23.30
20103;BMP180;10210;52.284;9.892;2022-07-05T04:58:55;101079.00;;;23.30
20103;BMP180;10210;52.284;9.892;2022-07-05T05:01:20;101073.00;;;23.30
20103;BMP180;10210;52.284;9.892;2022-07-05T05:03:47;101073.00;;;23.40
20103;BMP180;10210;52.284;9.892;2022-07-05T05:06:12;101077.00;;;23.40
20103;BMP180;10210;52.284;9.892;2022-07-05T05:08:40;101070.00;;;23.40
20103;BMP180;10210;52.284;9.892;2022-07-05T05:11:07;101077.00;;;23.50
20103;BMP180;10210;52.284;9.892;2022-07-05T05:13:33;101073.00;;;23.50
20103;BMP180;10210;52.284;9.892;2022-07-05T05:15:59;101079.00;;;23.60
20103;BMP180;10210;52.284;9.892;2022-07-05T05:18:25;101076.00;;;23.60
20103;BMP180;10210;52.284;9.892;2022-07-05T05:20:56;101082.00;;;23.60
20103;BMP180;10210;52.284;9.892;2022-07-05T05:23:24;101082.00;;;23.60
20103;BMP180;10210;52.284;9.892;2022-07-05T05:25:51;101086.00;;;23.70
20103;BMP180;10210;52.284;9.892;2022-07-05T05:28:16;101079.00;;;23.70
20103;BMP180;10210;52.284;9.892;2022-07-05T05:30:43;101088.00;;;23.80
20103;BMP180;10210;52.284;9.892;2022-07-05T05:33:09;101099.00;;;23.80
20103;BMP180;10210;52.284;9.892;2022-07-05T05:35:34;101096.00;;;23.80
20103;BMP180;10210;52.284;9.892;2022-07-05T05:38:00;101094.00;;;23.80
20103;BMP180;10210;52.284;9.892;2022-07-05T05:40:26;101106.00;;;23.80
20103;BMP180;10210;52.284;9.892;2022-07-05T05:42:53;101099.00;;;23.80
20103;BMP180;10210;52.284;9.892;2022-07-05T05:45:20;101102.00;;;23.80
20103;BMP180;10210;52.284;9.892;2022-07-05T05:47:52;101112.00;;;23.90
20103;BMP180;10210;52.284;9.892;2022-07-05T05:50:39;101123.00;;;23.80
20103;BMP180;10210;52.284;9.892;2022-07-05T05:53:05;101126.00;;;23.90
20103;BMP180;10210;52.284;9.892;2022-07-05T05:55:32;101122.00;;;23.90
20103;BMP180;10210;52.284;9.892;2022-07-05T05:58:20;101131.00;;;23.90
20103;BMP180;10210;52.284;9.892;2022-07-05T06:00:46;101133.00;;;23.90
20103;BMP180;10210;52.284;9.892;2022-07-05T06:03:18;101128.00;;;24.00
20103;BMP180;10210;52.284;9.892;2022-07-05T06:05:44;101129.00;;;24.00
20103;BMP180;10210;52.284;9.892;2022-07-05T06:08:09;101133.00;;;24.00
20103;BMP180;10210;52.284;9.892;2022-07-05T06:10:38;101129.00;;;24.00
20103;BMP180;10210;52.284;9.892;2022-07-05T06:13:07;101130.00;;;24.00
20103;BMP180;10210;52.284;9.892;2022-07-05T06:15:33;101129.00;;;24.00
20103;BMP180;10210;52.284;9.892;2022-07-05T06:17:59;101141.00;;;24.00
20103;BMP180;10210;52.284;9.892;2022-07-05T06:20:34;101145.00;;;24.00
20103;BMP180;10210;52.284;9.892;2022-07-05T06:23:01;101142.00;;;24.10
20103;BMP180;10210;52.284;9.892;2022-07-05T06:25:28;101136.00;;;24.10
20103;BMP180;10210;52.284;9.892;2022-07-05T06:27:57;101144.00;;;24.00
20103;BMP180;10210;52.284;9.892;2022-07-05T06:30:25;101145.00;;;24.10
20103;BMP180;10210;52.284;9.892;2022-07-05T06:32:52;101140.00;;;24.10
20103;BMP180;10210;52.284;9.892;2022-07-05T06:35:19;101153.00;;;24.10
20103;BMP180;10210;52.284;9.892;2022-07-05T06:37:55;101139.00;;;24.10
20103;BMP180;10210;52.284;9.892;2022-07-05T06:40:29;101145.00;;;24.20
20103;BMP180;10210;52.284;9.892;2022-07-05T06:42:59;101142.00;;;24.20
20103;BMP180;10210;52.284;9.892;2022-07-05T06:45:25;101142.00;;;24.20
20103;BMP180;10210;52.284;9.892;2022-07-05T06:48:09;101153.00;;;24.20
20103;BMP180;10210;52.284;9.892;2022-07-05T06:50:43;101143.00;;;24.20
20103;BMP180;10210;52.284;9.892;2022-07-05T06:53:10;101143.00;;;24.30
20103;BMP180;10210;52.284;9.892;2022-07-05T06:55:37;101153.00;;;24.60
20103;BMP180;10210;52.284;9.892;2022-07-05T06:58:07;101158.00;;;25.00
20103;BMP180;10210;52.284;9.892;2022-07-05T07:00:33;101152.00;;;25.50
20103;BMP180;10210;52.284;9.892;2022-07-05T07:02:59;101150.00;;;25.90
20103;BMP180;10210;52.284;9.892;2022-07-05T07:05:25;101151.00;;;26.30
20103;BMP180;10210;52.284;9.892;2022-07-05T07:07:51;101150.00;;;26.70
20103;BMP180;10210;52.284;9.892;2022-07-05T07:10:36;101159.00;;;27.10
20103;BMP180;10210;52.284;9.892;2022-07-05T07:13:02;101161.00;;;27.50
20103;BMP180;10210;52.284;9.892;2022-07-05T07:15:29;101163.00;;;27.90
20103;BMP180;10210;52.284;9.892;2022-07-05T07:17:56;101164.00;;;28.20
20103;BMP180;10210;52.284;9.892;2022-07-05T07:20:21;101164.00;;;28.60
20103;BMP180;10210;52.284;9.892;2022-07-05T07:22:47;101168.00;;;29.00
20103;BMP180;10210;52.284;9.892;2022-07-05T07:25:13;101170.00;;;29.30
20103;BMP180;10210;52.284;9.892;2022-07-05T07:27:48;101159.00;;;29.20
20103;BMP180;10210;52.284;9.892;2022-07-05T07:30:16;101172.00;;;29.10
20103;BMP180;10210;52.284;9.892;2022-07-05T07:32:44;101176.00;;;29.00
20103;BMP180;10210;52.284;9.892;2022-07-05T07:35:10;101173.00;;;28.90
20103;BMP180;10210;52.284;9.892;2022-07-05T07:37:36;101172.00;;;28.70
20103;BMP180;10210;52.284;9.892;2022-07-05T07:40:04;101171.00;;;28.40
20103;BMP180;10210;52.284;9.892;2022-07-05T07:42:30;101174.00;;;28.10
20103;BMP180;10210;52.284;9.892;2022-07-05T07:44:56;101172.00;;;28.10
20103;BMP180;10210;52.284;9.892;2022-07-05T07:47:22;101175.00;;;28.10
20103;BMP180;10210;52.284;9.892;2022-07-05T07:49:48;101167.00;;;28.30
20103;BMP180;10210;52.284;9.892;2022-07-05T07:52:13;101166.00;;;28.60
20103;BMP180;10210;52.284;9.892;2022-07-05T07:54:40;101176.00;;;29.00
20103;BMP180;10210;52.284;9.892;2022-07-05T07:57:06;101174.00;;;29.30
20103;BMP180;10210;52.284;9.892;2022-07-05T07:59:32;101192.00;;;29.60
20103;BMP180;10210;52.284;9.892;2022-07-05T08:01:58;101184.00;;;29.90
20103;BMP180;10210;52.284;9.892;2022-07-05T08:04:24;101180.00;;;30.10
20103;BMP180;10210;52.284;9.892;2022-07-05T08:06:49;101176.00;;;30.10
20103;BMP180;10210;52.284;9.892;2022-07-05T08:09:15;101183.00;;;30.20
20103;BMP180;10210;52.284;9.892;2022-07-05T08:11:41;101185.00;;;30.30
20103;BMP180;10210;52.284;9.892;2022-07-05T08:14:07;101195.00;;;30.50
20103;BMP180;10210;52.284;9.892;2022-07-05T08:16:33;101185.00;;;30.60
20103;BMP180;10210;52.284;9.892;2022-07-05T08:18:59;101188.00;;;30.80
20103;BMP180;10210;52.284;9.892;2022-07-05T08:21:43;101189.00;;;30.90
20103;BMP180;10210;52.284;9.892;2022-07-05T08:24:13;101182.00;;;31.00
20103;BMP180;10210;52.284;9.892;2022-07-05T08:26:40;101185.00;;;30.90
20103;BMP180;10210;52.284;9.892;2022-07-05T08:29:09;101185.00;;;30.80
20103;BMP180;10210;52.284;9.892;2022-07-05T08:31:45;101184.00;;;30.70
20103;BMP180;10210;52.284;9.892;2022-07-05T08:34:12;101182.00;;;30.70
20103;BMP180;10210;52.284;9.892;2022-07-05T08:36:39;101181.00;;;30.80
20103;BMP180;10210;52.284;9.892;2022-07-05T08:39:07;101176.00;;;30.90
20103;BMP180;10210;52.284;9.892;2022-07-05T08:41:40;101171.00;;;30.90
20103;BMP180;10210;52.284;9.892;2022-07-05T08:44:07;101181.00;;;30.90
20103;BMP180;10210;52.284;9.892;2022-07-05T08:46:37;101182.00;;;30.90
20103;BMP180;10210;52.284;9.892;2022-07-05T08:49:04;101176.00;;;30.90
20103;BMP180;10210;52.284;9.892;2022-07-05T08:51:40;101176.00;;;30.90
20103;BMP180;10210;52.284;9.892;2022-07-05T08:54:08;101185.00;;;30.90
20103;BMP180;10210;52.284;9.892;2022-07-05T08:56:35;101178.00;;;31.00
20103;BMP180;10210;52.284;9.892;2022-07-05T08:59:02;101182.00;;;30.90
20103;BMP180;10210;52.284;9.892;2022-07-05T09:01:28;101185.00;;;30.90
20103;BMP180;10210;52.284;9.892;2022-07-05T09:04:03;101184.00;;;30.90
20103;BMP180;10210;52.284;9.892;2022-07-05T09:06:33;101187.00;;;30.90
20103;BMP180;10210;52.284;9.892;2022-07-05T09:09:00;101182.00;;;30.90
20103;BMP180;10210;52.284;9.892;2022-07-05T09:11:41;101179.00;;;30.90
20103;BMP180;10210;52.284;9.892;2022-07-05T09:14:24;101185.00;;;31.00
20103;BMP180;10210;52.284;9.892;2022-07-05T09:16:51;101190.00;;;31.10
20103;BMP180;10210;52.284;9.892;2022-07-05T09:19:17;101184.00;;;31.10
20103;BMP180;10210;52.284;9.892;2022-07-05T09:21:44;101186.00;;;31.20
20103;BMP180;10210;52.284;9.892;2022-07-05T09:24:12;101173.00;;;31.30
20103;BMP180;10210;52.284;9.892;2022-07-05T09:26:44;101172.00;;;31.40
20103;BMP180;10210;52.284;9.892;2022-07-05T09:29:19;101180.00;;;31.40
20103;BMP180;10210;52.284;9.892;2022-07-05T09:31:48;101179.00;;;31.30
20103;BMP180;10210;52.284;9.892;2022-07-05T09:34:20;101183.00;;;31.10
20103;BMP180;10210;52.284;9.892;2022-07-05T09:37:02;101180.00;;;31.00
20103;BMP180;10210;52.284;9.892;2022-07-05T09:39:35;101174.00;;;30.80
20103;BMP180;10210;52.284;9.892;2022-07-05T09:42:21;101165.00;;;30.70
20103;BMP180;10210;52.284;9.892;2022-07-05T09:44:56;101166.00;;;30.70
20103;BMP180;10210;52.284;9.892;2022-07-05T09:47:28;101169.00;;;30.70
20103;BMP180;10210;52.284;9.892;2022-07-05T09:49:56;101178.00;;;30.70
20103;BMP180;10210;52.284;9.892;2022-07-05T09:52:27;101177.00;;;30.70
20103;BMP180;10210;52.284;9.892;2022-07-05T09:57:32;101186.00;;;30.40
20103;BMP180;10210;52.284;9.892;2022-07-05T10:05:16;101171.00;;;30.20
20103;BMP180;10210;52.284;9.892;2022-07-05T10:07:45;101174.00;;;30.10
20103;BMP180;10210;52.284;9.892;2022-07-05T10:10:17;101175.00;;;30.10
20103;BMP180;10210;52.284;9.892;2022-07-05T10:12:46;101174.00;;;30.00
20103;BMP180;10210;52.284;9.892;2022-07-05T10:15:17;101181.00;;;29.90
20103;BMP180;10210;52.284;9.892;2022-07-05T10:20:38;101185.00;;;29.90
20103;BMP180;10210;52.284;9.892;2022-07-05T10:23:15;101187.00;;;29.90
20103;BMP180;10210;52.284;9.892;2022-07-05T10:25:46;101182.00;;;29.90
20103;BMP180;10210;52.284;9.892;2022-07-05T10:28:17;101178.00;;;29.90
20103;BMP180;10210;52.284;9.892;2022-07-05T10:30:45;101174.00;;;29.90
20103;BMP180;10210;52.284;9.892;2022-07-05T10:33:13;101181.00;;;29.80
20103;BMP180;10210;52.284;9.892;2022-07-05T10:35:43;101180.00;;;29.80
20103;BMP180;10210;52.284;9.892;2022-07-05T10:38:11;101174.00;;;29.90
20103;BMP180;10210;52.284;9.892;2022-07-05T10:40:40;101184.00;;;29.90
20103;BMP180;10210;52.284;9.892;2022-07-05T10:43:09;101185.00;;;29.90
20103;BMP180;10210;52.284;9.892;2022-07-05T10:45:39;101176.00;;;30.00
20103;BMP180;10210;52.284;9.892;2022-07-05T10:51:00;101169.00;;;30.10
20103;BMP180;10210;52.284;9.892;2022-07-05T11:04:19;101168.00;;;30.10
20103;BMP180;10210;52.284;9.892;2022-07-05T11:06:46;101175.00;;;30.20
20103;BMP180;10210;52.284;9.892;2022-07-05T11:09:19;101165.00;;;30.10
20103;BMP180;10210;52.284;9.892;2022-07-05T11:12:01;101168.00;;;30.10
20103;BMP180;10210;52.284;9.892;2022-07-05T11:17:13;101156.00;;;30.20
20103;BMP180;10210;52.284;9.892;2022-07-05T11:22:26;101165.00;;;30.30
20103;BMP180;10210;52.284;9.892;2022-07-05T11:24:53;101154.00;;;30.30
20103;BMP180;10210;52.284;9.892;2022-07-05T11:27:20;101155.00;;;30.40
20103;BMP180;10210;52.284;9.892;2022-07-05T11:29:54;101166.00;;;30.40
20103;BMP180;10210;52.284;9.892;2022-07-05T11:34:56;101164.00;;;30.50
20103;BMP180;10210;52.284;9.892;2022-07-05T11:38:03;101160.00;;;30.50
20103;BMP180;10210;52.284;9.892;2022-07-05T11:40:31;101158.00;;;30.60
20103;BMP180;10210;52.284;9.892;2022-07-05T11:42:58;101154.00;;;30.60
20103;BMP180;10210;52.284;9.892;2022-07-05T11:45:25;101155.00;;;30.70
20103;BMP180;10210;52.284;9.892;2022-07-05T11:47:54;101156.00;;;30.70
20103;BMP180;10210;52.284;9.892;2022-07-05T11:50:30;101149.00;;;30.70
20103;BMP180;10210;52.284;9.892;2022-07-05T11:52:57;101152.00;;;30.70
20103;BMP180;10210;52.284;9.892;2022-07-05T11:55:26;101145.00;;;30.70
20103;BMP180;10210;52.284;9.892;2022-07-05T11:57:55;101145.00;;;30.60
20103;BMP180;10210;52.284;9.892;2022-07-05T12:00:36;101150.00;;;30.60
20103;BMP180;10210;52.284;9.892;2022-07-05T12:03:12;101148.00;;;30.60
20103;BMP180;10210;52.284;9.892;2022-07-05T12:05:38;101152.00;;;30.70
20103;BMP180;10210;52.284;9.892;2022-07-05T12:08:04;101149.00;;;30.70
20103;BMP180;10210;52.284;9.892;2022-07-05T12:10:29;101144.00;;;30.70
20103;BMP180;10210;52.284;9.892;2022-07-05T12:13:14;101148.00;;;30.70
20103;BMP180;10210;52.284;9.892;2022-07-05T12:15:39;101147.00;;;30.70
20103;BMP180;10210;52.284;9.892;2022-07-05T12:18:07;101132.00;;;30.70
20103;BMP180;10210;52.284;9.892;2022-07-05T12:20:38;101149.00;;;30.80
20103;BMP180;10210;52.284;9.892;2022-07-05T12:23:06;101147.00;;;30.80
20103;BMP180;10210;52.284;9.892;2022-07-05T12:25:33;101150.00;;;30.80
20103;BMP180;10210;52.284;9.892;2022-07-05T12:28:02;101151.00;;;30.70
20103;BMP180;10210;52.284;9.892;2022-07-05T12:30:31;101141.00;;;30.70
20103;BMP180;10210;52.284;9.892;2022-07-05T12:33:06;101137.00;;;30.70
20103;BMP180;10210;52.284;9.892;2022-07-05T12:38:19;101139.00;;;30.70
20103;BMP180;10210;52.284;9.892;2022-07-05T12:40:59;101135.00;;;30.70
20103;BMP180;10210;52.284;9.892;2022-07-05T12:43:25;101139.00;;;30.80
20103;BMP180;10210;52.284;9.892;2022-07-05T12:46:07;101137.00;;;30.80
20103;BMP180;10210;52.284;9.892;2022-07-05T12:48:38;101147.00;;;30.80
20103;BMP180;10210;52.284;9.892;2022-07-05T12:51:06;101146.00;;;30.90
20103;BMP180;10210;52.284;9.892;2022-07-05T12:53:33;101136.00;;;31.00
20103;BMP180;10210;52.284;9.892;2022-07-05T12:56:23;101141.00;;;31.00
20103;BMP180;10210;52.284;9.892;2022-07-05T12:59:09;101139.00;;;31.10
20103;BMP180;10210;52.284;9.892;2022-07-05T13:01:41;101137.00;;;31.10
20103;BMP180;10210;52.284;9.892;2022-07-05T13:06:44;101134.00;;;31.20
20103;BMP180;10210;52.284;9.892;2022-07-05T13:09:13;101130.00;;;31.30
20103;BMP180;10210;52.284;9.892;2022-07-05T13:11:39;101129.00;;;31.30
20103;BMP180;10210;52.284;9.892;2022-07-05T13:14:05;101129.00;;;31.30
20103;BMP180;10210;52.284;9.892;2022-07-05T13:16:31;101122.00;;;31.40
20103;BMP180;10210;52.284;9.892;2022-07-05T13:19:11;101131.00;;;31.30
20103;BMP180;10210;52.284;9.892;2022-07-05T13:21:38;101135.00;;;31.30
20103;BMP180;10210;52.284;9.892;2022-07-05T13:24:05;101133.00;;;31.30
20103;BMP180;10210;52.284;9.892;2022-07-05T13:26:31;101133.00;;;31.30
20103;BMP180;10210;52.284;9.892;2022-07-05T13:28:57;101132.00;;;31.30
20103;BMP180;10210;52.284;9.892;2022-07-05T13:31:22;101128.00;;;31.30
20103;BMP180;10210;52.284;9.892;2022-07-05T13:33:48;101126.00;;;31.40
20103;BMP180;10210;52.284;9.892;2022-07-05T13:36:13;101136.00;;;31.40
20103;BMP180;10210;52.284;9.892;2022-07-05T13:38:39;101136.00;;;31.40
20103;BMP180;10210;52.284;9.892;2022-07-05T13:41:05;101140.00;;;31.50
20103;BMP180;10210;52.284;9.892;2022-07-05T13:43:30;101137.00;;;31.50
20103;BMP180;10210;52.284;9.892;2022-07-05T13:45:56;101137.00;;;31.50
20103;BMP180;10210;52.284;9.892;2022-07-05T13:48:22;101136.00;;;31.50
20103;BMP180;10210;52.284;9.892;2022-07-05T13:50:47;101140.00;;;31.50
20103;BMP180;10210;52.284;9.892;2022-07-05T13:53:13;101125.00;;;31.50
20103;BMP180;10210;52.284;9.892;2022-07-05T13:55:38;101130.00;;;31.60
20103;BMP180;10210;52.284;9.892;2022-07-05T13:58:04;101129.00;;;31.60
20103;BMP180;10210;52.284;9.892;2022-07-05T14:00:30;101140.00;;;31.60
20103;BMP180;10210;52.284;9.892;2022-07-05T14:02:55;101132.00;;;31.60
20103;BMP180;10210;52.284;9.892;2022-07-05T14:05:21;101137.00;;;31.60
20103;BMP180;10210;52.284;9.892;2022-07-05T14:07:48;101128.00;;;31.60
20103;BMP180;10210;52.284;9.892;2022-07-05T14:10:14;101126.00;;;31.60
20103;BMP180;10210;52.284;9.892;2022-07-05T14:12:40;101125.00;;;31.70
20103;BMP180;10210;52.284;9.892;2022-07-05T14:15:07;101117.00;;;31.70
20103;BMP180;10210;52.284;9.892;2022-07-05T14:17:33;101123.00;;;31.70
20103;BMP180;10210;52.284;9.892;2022-07-05T14:19:59;101115.00;;;31.80
20103;BMP180;10210;52.284;9.892;2022-07-05T14:22:24;101119.00;;;31.80
20103;BMP180;10210;52.284;9.892;2022-07-05T14:24:50;101118.00;;;31.80
20103;BMP180;10210;52.284;9.892;2022-07-05T14:27:16;101115.00;;;31.90
20103;BMP180;10210;52.284;9.892;2022-07-05T14:29:41;101114.00;;;31.90
20103;BMP180;10210;52.284;9.892;2022-07-05T14:32:07;101117.00;;;31.90
20103;BMP180;10210;52.284;9.892;2022-07-05T14:34:33;101116.00;;;32.00
20103;BMP180;10210;52.284;9.892;2022-07-05T14:36:58;101122.00;;;32.00
20103;BMP180;10210;52.284;9.892;2022-07-05T14:39:25;101119.00;;;32.00
20103;BMP180;10210;52.284;9.892;2022-07-05T14:41:51;101113.00;;;32.10